Time;durP1;ratioP1;P1;durP2;ratioP2;P2;SDS_P1;SDS_P2;PMS_P1;PMS_P2;Temp;Humidity;BMP_temperature;BMP_pressure;BME280_temperature;BME280_humidity;BME280_pressure;Samples;Min_cycle;Max_cycle;Signal;HPM_P1;HPM_P2
2023/04/26 00:14:13;;;;;;;4.37;3.37;;;;;;;13.23;100.00;99637.09;31363180;28;20048;-76
2023/04/26 00:29:15;;;;;;;8.17;3.80;;;;;;;13.17;100.00;99649.03;31392196;28;20057;-77
2023/04/26 00:44:17;;;;;;;7.13;3.70;;;;;;;12.92;100.00;99663.53;31357094;28;20489;-76
2023/04/26 00:59:20;;;;;;;5.70;4.30;;;;;;;12.68;100.00;99651.56;31357368;28;20073;-77
2023/04/26 01:14:22;;;;;;;10.47;4.87;;;;;;;12.51;100.00;99645.56;31349464;28;20067;-77
2023/04/26 01:29:26;;;;;;;6.97;4.27;;;;;;;12.52;100.00;99639.66;31329024;28;20045;-76
2023/04/26 01:44:28;;;;;;;11.57;5.27;;;;;;;12.27;100.00;99628.88;31366364;28;20455;-76
2023/04/26 01:59:30;;;;;;;12.27;5.57;;;;;;;12.05;100.00;99630.78;31391785;28;20056;-77
2023/04/26 02:14:32;;;;;;;9.33;5.43;;;;;;;12.09;100.00;99631.41;31348818;28;20501;-76
2023/04/26 02:29:35;;;;;;;79.27;6.67;;;;;;;11.59;100.00;99636.47;31346877;28;20065;-76
2023/04/26 02:44:45;;;;;;;56.17;7.37;;;;;;;11.59;100.00;99639.19;31346214;28;20095;-76
2023/04/26 02:59:47;;;;;;;60.03;6.93;;;;;;;11.73;100.00;99646.16;31334727;28;20160;-76
2023/04/26 03:14:48;;;;;;;41.30;7.20;;;;;;;11.59;100.00;99646.59;31319693;28;20052;-76
2023/04/26 03:29:50;;;;;;;63.43;7.23;;;;;;;11.54;100.00;99639.00;31317525;28;20573;-77
2023/04/26 03:44:52;;;;;;;39.13;5.43;;;;;;;11.54;100.00;99645.19;31366426;28;20094;-76
2023/04/26 03:59:55;;;;;;;37.40;6.43;;;;;;;11.46;100.00;99632.25;31373025;28;20119;-77
2023/04/26 04:14:56;;;;;;;44.63;5.57;;;;;;;11.55;100.00;99640.50;31369882;28;20049;-76
2023/04/26 04:30:02;;;;;;;12.60;5.17;;;;;;;11.59;100.00;99662.91;31336785;28;20057;-75
2023/04/26 04:45:04;;;;;;;14.43;5.40;;;;;;;12.03;100.00;99668.56;31371451;28;20405;-77
2023/04/26 05:00:11;;;;;;;8.33;4.60;;;;;;;12.17;100.00;99665.34;31343275;28;20107;-76
2023/04/26 05:15:13;;;;;;;7.53;4.70;;;;;;;12.39;100.00;99677.06;31354875;28;20049;-76
2023/04/26 05:30:15;;;;;;;5.83;3.93;;;;;;;13.18;100.00;99661.47;31334842;28;20064;-76
2023/04/26 05:45:17;;;;;;;8.00;4.47;;;;;;;13.99;100.00;99668.41;31335874;28;20284;-78
2023/04/26 06:00:22;;;;;;;5.60;3.97;;;;;;;14.88;100.00;99679.09;31334191;28;20064;-75
2023/04/26 06:15:24;;;;;;;4.53;3.43;;;;;;;16.23;100.00;99680.28;31352090;28;20430;-75
2023/04/26 06:30:26;;;;;;;8.37;3.13;;;;;;;16.84;100.00;99683.47;31346437;28;20052;-77
2023/04/26 06:45:29;;;;;;;4.97;3.23;;;;;;;17.25;100.00;99682.44;31335844;28;20103;-79
2023/04/26 07:00:33;;;;;;;6.10;3.20;;;;;;;18.79;100.00;99688.31;31308968;28;20551;-79
2023/04/26 07:15:35;;;;;;;1.97;1.67;;;;;;;19.51;100.00;99697.25;31328897;28;20041;-78
2023/04/26 07:30:37;;;;;;;2.08;1.30;;;;;;;20.10;100.00;99691.84;31318253;28;20576;-79
2023/04/26 07:45:40;;;;;;;2.55;1.30;;;;;;;20.21;100.00;99691.16;31192558;28;20054;-79
2023/04/26 08:00:42;;;;;;;2.45;1.65;;;;;;;20.19;100.00;99703.91;31204788;28;20468;-75
2023/04/26 08:15:46;;;;;;;1.50;1.23;;;;;;;20.27;100.00;99686.44;31220353;28;20054;-76
2023/04/26 08:30:48;;;;;;;3.05;1.17;;;;;;;20.54;100.00;99690.56;31213935;28;20438;-76
2023/04/26 08:45:51;;;;;;;1.77;1.52;;;;;;;20.45;100.00;99693.53;31217781;28;20631;-74
2023/04/26 09:00:53;;;;;;;1.80;1.35;;;;;;;20.74;100.00;99690.38;31226401;28;20084;-75
2023/04/26 09:15:55;;;;;;;3.72;1.70;;;;;;;21.31;100.00;99680.16;31190192;28;20042;-79
2023/04/26 09:30:57;;;;;;;6.28;1.60;;;;;;;21.94;100.00;99660.25;31215114;28;20092;-81
2023/04/26 09:45:59;;;;;;;2.30;1.92;;;;;;;21.67;100.00;99665.34;31192960;28;20046;-77
2023/04/26 10:01:03;;;;;;;2.40;1.60;;;;;;;21.77;100.00;99676.84;31204730;28;20111;-75
2023/04/26 10:16:05;;;;;;;2.30;1.45;;;;;;;22.31;100.00;99670.94;31229714;28;20338;-75
2023/04/26 10:31:07;;;;;;;2.07;1.37;;;;;;;22.91;100.00;99665.63;31224124;28;20453;-73
2023/04/26 10:46:33;;;;;;;2.53;1.17;;;;;;;22.55;100.00;99671.06;31219083;28;20046;-73
2023/04/26 11:01:36;;;;;;;4.20;1.10;;;;;;;23.94;93.85;99647.06;31190031;28;20053;-75
2023/04/26 11:16:39;;;;;;;4.97;0.83;;;;;;;24.58;83.52;99652.81;31202557;28;20053;-73
2023/04/26 11:31:41;;;;;;;2.42;0.98;;;;;;;24.08;72.74;99651.44;31183400;28;20045;-75
2023/04/26 11:46:44;;;;;;;2.08;1.30;;;;;;;22.16;80.04;99626.28;31200906;28;20140;-76
2023/04/26 12:01:51;;;;;;;2.20;1.37;;;;;;;21.35;79.34;99612.41;31209939;28;20220;-74
2023/04/26 12:17:06;;;;;;;1.80;1.00;;;;;;;21.44;79.70;99614.91;31213343;28;20042;-78
2023/04/26 12:32:08;;;;;;;2.88;1.10;;;;;;;21.26;81.77;99604.38;31228906;28;20099;-74
2023/04/26 12:47:10;;;;;;;1.77;1.30;;;;;;;21.45;80.82;99599.09;31237752;28;20045;-74
2023/04/26 13:02:12;;;;;;;2.88;1.50;;;;;;;21.53;79.92;99588.28;31238663;28;20045;-76
2023/04/26 13:17:14;;;;;;;3.65;1.50;;;;;;;21.42;78.60;99578.78;31232847;28;20131;-74
2023/04/26 13:32:17;;;;;;;2.38;1.60;;;;;;;20.84;81.37;99574.28;31213361;28;20062;-77
2023/04/26 13:47:19;;;;;;;1.85;1.40;;;;;;;20.94;80.68;99592.09;31233718;28;20045;-80
2023/04/26 14:02:21;;;;;;;5.93;1.50;;;;;;;20.84;78.30;99579.78;31217620;28;20573;-79
2023/04/26 14:17:24;;;;;;;3.30;1.42;;;;;;;20.88;80.48;99572.00;31222006;28;20494;-79
2023/04/26 14:32:26;;;;;;;1.67;1.08;;;;;;;20.56;78.55;99577.00;31223670;28;20137;-78
2023/04/26 14:47:32;;;;;;;3.17;1.45;;;;;;;20.61;83.83;99559.72;31206242;28;20052;-76
2023/04/26 15:02:34;;;;;;;3.08;1.35;;;;;;;20.67;85.96;99547.44;31206572;28;20518;-74
2023/04/26 15:17:37;;;;;;;3.35;1.50;;;;;;;20.36;91.07;99539.34;31207024;28;20045;-77
2023/04/26 15:32:39;;;;;;;3.65;1.50;;;;;;;20.05;93.72;99530.03;31207423;28;20080;-75
2023/04/26 15:47:42;;;;;;;5.20;1.60;;;;;;;19.95;96.29;99537.00;31203019;28;20054;-77
2023/04/26 16:02:44;;;;;;;4.10;2.13;;;;;;;19.66;100.00;99515.38;31222084;28;20061;-76
2023/04/26 16:17:46;;;;;;;5.22;1.95;;;;;;;19.29;100.00;99521.69;31215396;28;20066;-76
2023/04/26 16:32:48;;;;;;;14.07;6.13;;;;;;;19.05;100.00;99535.03;31210397;28;20041;-74
2023/04/26 16:47:50;;;;;;;4.30;1.90;;;;;;;18.98;100.00;99543.72;31230301;28;20137;-77
2023/04/26 17:02:52;;;;;;;5.40;2.43;;;;;;;18.87;100.00;99557.41;31235127;28;20109;-77
2023/04/26 17:17:55;;;;;;;5.60;2.47;;;;;;;18.64;100.00;99559.97;31203305;28;20069;-78
2023/04/26 17:32:57;;;;;;;4.78;2.53;;;;;;;18.37;100.00;99568.66;31230134;28;20069;-76
2023/04/26 17:47:59;;;;;;;7.00;2.47;;;;;;;18.21;100.00;99563.72;31199513;28;20049;-74
2023/04/26 18:03:03;;;;;;;7.77;2.40;;;;;;;18.08;100.00;99555.88;31240763;28;20061;-74
2023/04/26 18:18:06;;;;;;;6.07;1.80;;;;;;;17.98;100.00;99566.22;31225796;28;20049;-75
2023/04/26 18:33:08;;;;;;;6.30;2.90;;;;;;;17.72;100.00;99555.19;31220451;28;20056;-74
2023/04/26 18:48:10;;;;;;;6.80;2.43;;;;;;;17.59;100.00;99567.72;31216657;28;20049;-75
2023/04/26 19:03:12;;;;;;;4.87;2.30;;;;;;;17.64;100.00;99554.09;31195591;28;20080;-73
2023/04/26 19:18:16;;;;;;;5.20;2.47;;;;;;;17.62;100.00;99547.56;31198040;28;20045;-78
2023/04/26 19:33:19;;;;;;;5.90;2.43;;;;;;;17.57;100.00;99542.72;31194223;28;20045;-77
2023/04/26 19:48:20;;;;;;;5.13;2.33;;;;;;;17.53;100.00;99531.19;31181593;28;20081;-76
2023/04/26 20:03:23;;;;;;;4.33;2.33;;;;;;;17.49;100.00;99549.84;31191242;28;20053;-75
2023/04/26 20:18:25;;;;;;;5.60;2.43;;;;;;;17.49;100.00;99533.38;31208694;28;20065;-74
2023/04/26 20:33:28;;;;;;;4.60;2.70;;;;;;;17.48;100.00;99527.16;31221860;28;20058;-76
2023/04/26 20:48:29;;;;;;;6.97;2.87;;;;;;;17.32;100.00;99522.19;31214071;28;20118;-75
2023/04/26 21:03:33;;;;;;;6.03;3.67;;;;;;;17.15;100.00;99511.00;31214271;28;20145;-75
2023/04/26 21:18:35;;;;;;;6.93;3.40;;;;;;;16.99;100.00;99497.81;31218621;28;20500;-73
2023/04/26 21:33:39;;;;;;;5.00;2.97;;;;;;;16.86;100.00;99500.84;31207860;28;20489;-75
2023/04/26 21:48:43;;;;;;;8.63;3.20;;;;;;;16.83;100.00;99490.06;31240099;28;20045;-74
2023/04/26 22:03:45;;;;;;;5.93;3.40;;;;;;;16.78;100.00;99499.72;31239151;28;20053;-75
2023/04/26 22:18:47;;;;;;;9.13;3.90;;;;;;;16.71;100.00;99483.69;31226682;28;20085;-74
2023/04/26 22:33:49;;;;;;;4.97;3.37;;;;;;;16.62;100.00;99472.78;31230802;28;20057;-75
2023/04/26 22:48:52;;;;;;;4.97;3.10;;;;;;;16.64;100.00;99484.81;31212521;28;20056;-74
2023/04/26 23:03:54;;;;;;;3.87;2.60;;;;;;;16.62;100.00;99479.03;31242892;28;20049;-75
2023/04/26 23:18:56;;;;;;;4.03;2.43;;;;;;;16.44;100.00;99464.78;31241176;28;20065;-75
2023/04/26 23:33:59;;;;;;;4.20;2.97;;;;;;;16.35;100.00;99460.16;31217596;28;20041;-75
2023/04/26 23:49:01;;;;;;;5.07;3.17;;;;;;;16.38;100.00;99459.22;31226993;28;20053;-75
